createdAt,value
2023-08-09T00:00:21.130Z,0.20
2023-08-09T00:02:49.744Z,0.20
2023-08-09T00:05:18.557Z,0.20
2023-08-09T00:07:47.135Z,0.30
2023-08-09T00:10:15.514Z,0.20
2023-08-09T00:12:45.445Z,0.30
2023-08-09T00:15:14.052Z,0.20
2023-08-09T00:17:42.549Z,0.30
2023-08-09T00:20:12.810Z,0.30
2023-08-09T00:22:41.717Z,0.30
2023-08-09T00:25:12.241Z,0.20
2023-08-09T00:27:40.811Z,0.20
2023-08-09T00:30:12.730Z,0.20
2023-08-09T00:32:42.363Z,0.30
2023-08-09T00:35:11.319Z,0.20
2023-08-09T00:37:41.244Z,0.20
2023-08-09T00:40:13.474Z,0.30
2023-08-09T00:42:42.546Z,0.20
2023-08-09T00:45:13.461Z,0.30
2023-08-09T00:47:41.930Z,0.20
2023-08-09T00:50:11.073Z,0.20
2023-08-09T00:52:40.671Z,0.20
2023-08-09T00:55:10.209Z,0.20
2023-08-09T00:57:38.811Z,0.30
2023-08-09T01:00:10.682Z,0.30
2023-08-09T01:02:40.814Z,0.20
2023-08-09T01:05:10.067Z,0.20
2023-08-09T01:07:47.129Z,0.20
2023-08-09T01:10:18.681Z,0.27
2023-08-09T01:12:52.272Z,0.20
2023-08-09T01:15:22.620Z,0.20
2023-08-09T01:17:55.249Z,0.30
2023-08-09T01:20:24.461Z,0.30
2023-08-09T01:22:58.670Z,0.20
2023-08-09T01:25:28.823Z,0.30
2023-08-09T01:27:59.018Z,0.30
2023-08-09T01:30:27.508Z,0.30
2023-08-09T01:32:56.453Z,0.20
2023-08-09T01:35:25.931Z,0.30
2023-08-09T01:38:00.710Z,0.20
2023-08-09T01:40:30.775Z,0.20
2023-08-09T01:42:59.812Z,0.20
2023-08-09T01:45:29.669Z,0.20
2023-08-09T01:47:58.308Z,0.30
2023-08-09T01:50:28.974Z,0.20
2023-08-09T01:52:57.985Z,0.20
2023-08-09T01:55:28.225Z,0.30
2023-08-09T01:57:58.574Z,0.30
2023-08-09T02:00:26.943Z,0.20
2023-08-09T02:02:55.918Z,0.30
2023-08-09T02:05:24.553Z,0.30
2023-08-09T02:07:53.069Z,0.30
2023-08-09T02:10:21.649Z,0.30
2023-08-09T02:12:50.218Z,0.30
2023-08-09T02:15:21.765Z,0.30
2023-08-09T02:17:51.499Z,0.30
2023-08-09T02:20:21.247Z,0.30
2023-08-09T02:22:50.499Z,0.30
2023-08-09T02:25:18.925Z,0.30
2023-08-09T02:27:48.053Z,0.20
2023-08-09T02:30:17.127Z,0.30
2023-08-09T02:32:47.326Z,0.30
2023-08-09T02:35:16.670Z,0.20
2023-08-09T02:37:45.314Z,0.30
2023-08-09T02:40:14.870Z,0.30
2023-08-09T02:42:43.487Z,0.30
2023-08-09T02:45:12.357Z,0.20
2023-08-09T02:47:41.068Z,0.30
2023-08-09T02:50:11.442Z,0.30
2023-08-09T02:52:39.857Z,0.30
2023-08-09T02:55:11.036Z,0.30
2023-08-09T02:57:39.416Z,0.20
2023-08-09T03:00:09.790Z,0.30
2023-08-09T03:02:38.578Z,0.30
2023-08-09T03:05:11.973Z,0.30
2023-08-09T03:07:42.843Z,0.30
2023-08-09T03:10:13.758Z,0.30
2023-08-09T03:12:42.359Z,0.30
2023-08-09T03:15:11.887Z,0.30
2023-08-09T03:17:40.467Z,0.30
2023-08-09T03:20:14.437Z,0.30
2023-08-09T03:22:45.227Z,0.27
2023-08-09T03:25:14.202Z,0.30
2023-08-09T03:27:42.978Z,0.30
2023-08-09T03:30:12.934Z,0.30
2023-08-09T03:32:41.523Z,0.40
2023-08-09T03:35:12.094Z,0.30
2023-08-09T03:37:41.140Z,0.30
2023-08-09T03:40:13.689Z,0.20
2023-08-09T03:42:42.417Z,0.30
2023-08-09T03:45:12.212Z,0.30
2023-08-09T03:47:40.810Z,0.30
2023-08-09T03:50:10.020Z,0.30
2023-08-09T03:52:38.509Z,0.30
2023-08-09T03:55:08.236Z,0.30
2023-08-09T03:57:38.140Z,0.30
2023-08-09T04:00:09.969Z,0.30
2023-08-09T04:02:38.480Z,0.30
2023-08-09T04:05:07.228Z,0.40
2023-08-09T04:07:35.813Z,0.20
2023-08-09T04:10:04.363Z,0.30
2023-08-09T04:12:32.721Z,0.30
2023-08-09T04:15:03.294Z,0.30
2023-08-09T04:17:32.549Z,0.30
2023-08-09T04:20:01.482Z,0.30
2023-08-09T04:22:37.423Z,0.30
2023-08-09T04:25:07.022Z,0.20
2023-08-09T04:27:35.812Z,0.30
2023-08-09T04:30:06.602Z,0.30
2023-08-09T04:32:35.248Z,0.30
2023-08-09T04:35:03.913Z,0.30
2023-08-09T04:37:32.951Z,0.20
2023-08-09T04:40:02.000Z,0.20
2023-08-09T04:42:30.623Z,0.20
2023-08-09T04:44:59.190Z,0.20
2023-08-09T04:47:28.960Z,0.40
2023-08-09T04:49:58.641Z,0.33
2023-08-09T04:52:27.102Z,0.30
2023-08-09T04:54:55.756Z,0.37
2023-08-09T04:57:24.672Z,0.20
2023-08-09T04:59:53.283Z,0.30
2023-08-09T05:02:21.567Z,0.30
2023-08-09T05:04:51.290Z,0.33
2023-08-09T05:07:19.728Z,0.40
2023-08-09T05:09:48.285Z,0.30
2023-08-09T05:12:17.967Z,0.40
2023-08-09T05:14:46.352Z,0.30
2023-08-09T05:17:14.817Z,0.40
2023-08-09T05:19:43.129Z,0.30
2023-08-09T05:22:12.878Z,0.40
2023-08-09T05:24:42.472Z,0.37
2023-08-09T05:27:10.882Z,0.30
2023-08-09T05:29:39.364Z,0.30
2023-08-09T05:32:08.510Z,0.20
2023-08-09T05:34:37.068Z,0.30
2023-08-09T05:37:06.002Z,0.30
2023-08-09T05:39:36.136Z,0.30
2023-08-09T05:42:05.421Z,0.30
2023-08-09T05:44:33.860Z,0.20
2023-08-09T05:47:02.582Z,0.20
2023-08-09T05:49:31.168Z,0.20
2023-08-09T05:52:02.259Z,0.20
2023-08-09T05:54:30.954Z,0.30
2023-08-09T05:57:02.114Z,0.27
2023-08-09T05:59:30.738Z,0.30
2023-08-09T06:01:59.254Z,0.20
2023-08-09T06:04:27.690Z,0.20
2023-08-09T06:06:56.160Z,0.20
2023-08-09T06:09:24.941Z,0.20
2023-08-09T06:11:56.068Z,0.20
2023-08-09T06:14:26.022Z,0.20
2023-08-09T06:16:54.460Z,0.30
2023-08-09T06:19:22.949Z,0.20
2023-08-09T06:21:51.499Z,0.20
2023-08-09T06:24:22.602Z,0.20
2023-08-09T06:26:51.046Z,0.20
2023-08-09T06:29:20.182Z,0.20
2023-08-09T06:31:50.132Z,0.20
2023-08-09T06:34:18.734Z,0.20
2023-08-09T06:36:47.088Z,0.30
2023-08-09T06:39:15.377Z,0.20
2023-08-09T06:41:43.753Z,0.30
2023-08-09T06:44:12.035Z,0.20
2023-08-09T06:46:40.501Z,0.20
2023-08-09T06:49:10.288Z,0.20
2023-08-09T06:51:38.974Z,0.20
2023-08-09T06:54:08.166Z,0.30
2023-08-09T06:56:36.839Z,0.20
2023-08-09T06:59:05.674Z,0.10
2023-08-09T07:01:35.755Z,0.20
2023-08-09T07:04:04.177Z,0.30
2023-08-09T07:06:34.029Z,0.30
2023-08-09T07:09:02.361Z,0.20
2023-08-09T07:11:30.755Z,0.20
2023-08-09T07:13:59.141Z,0.20
2023-08-09T07:16:27.591Z,0.20
2023-08-09T07:18:57.793Z,0.20
2023-08-09T07:21:29.472Z,0.30
2023-08-09T07:23:59.372Z,0.20
2023-08-09T07:26:28.725Z,0.20
2023-08-09T07:28:57.107Z,0.20
2023-08-09T07:31:26.574Z,0.20
2023-08-09T07:33:55.386Z,0.20
2023-08-09T07:36:24.713Z,0.20
2023-08-09T07:38:54.817Z,0.27
2023-08-09T07:41:24.566Z,0.20
2023-08-09T07:43:52.934Z,0.20
2023-08-09T07:46:21.433Z,0.20
2023-08-09T07:48:51.422Z,0.20
2023-08-09T07:51:19.857Z,0.20
2023-08-09T07:53:48.344Z,0.20
2023-08-09T07:56:16.769Z,0.20
2023-08-09T07:58:47.077Z,0.20
2023-08-09T08:01:15.428Z,0.20
2023-08-09T08:03:43.937Z,0.20
2023-08-09T08:06:12.378Z,0.20
2023-08-09T08:08:40.736Z,0.17
2023-08-09T08:11:09.641Z,0.20
2023-08-09T08:13:37.986Z,0.20
2023-08-09T08:16:07.931Z,0.20
2023-08-09T08:18:36.470Z,0.20
2023-08-09T08:21:05.475Z,0.20
2023-08-09T08:23:34.517Z,0.20
2023-08-09T08:26:03.253Z,0.10
2023-08-09T08:28:32.090Z,0.20
2023-08-09T08:31:00.560Z,0.20
2023-08-09T08:33:30.343Z,0.17
2023-08-09T08:36:08.633Z,0.20
2023-08-09T08:38:47.676Z,0.20
2023-08-09T08:41:16.137Z,0.20
2023-08-09T08:43:45.424Z,0.20
2023-08-09T08:46:18.062Z,0.20
2023-08-09T08:48:50.514Z,0.20
2023-08-09T08:51:20.218Z,0.20
2023-08-09T08:53:49.378Z,0.20
2023-08-09T08:56:18.086Z,0.20
2023-08-09T08:58:46.962Z,0.20
2023-08-09T09:01:16.342Z,0.20
2023-08-09T09:03:44.987Z,0.20
2023-08-09T09:06:15.562Z,0.20
2023-08-09T09:08:44.085Z,0.20
2023-08-09T09:11:19.572Z,0.20
2023-08-09T09:13:49.972Z,0.20
2023-08-09T09:16:18.977Z,0.10
2023-08-09T09:18:50.333Z,0.20
2023-08-09T09:21:21.306Z,0.20
2023-08-09T09:23:49.810Z,0.10
2023-08-09T09:26:19.279Z,0.20
2023-08-09T09:28:49.047Z,0.10
2023-08-09T09:31:19.810Z,0.20
2023-08-09T09:33:50.497Z,0.20
2023-08-09T09:36:20.717Z,0.10
2023-08-09T09:38:54.837Z,0.20
2023-08-09T09:41:23.543Z,0.10
2023-08-09T09:43:52.806Z,0.10
2023-08-09T09:46:35.512Z,0.20
2023-08-09T09:49:07.140Z,0.20
2023-08-09T09:51:38.109Z,0.10
2023-08-09T09:54:07.880Z,0.10
2023-08-09T09:56:37.398Z,0.10
2023-08-09T09:59:06.437Z,0.20
2023-08-09T10:01:38.255Z,0.10
2023-08-09T10:04:09.077Z,0.10
2023-08-09T10:06:43.796Z,0.10
2023-08-09T10:09:14.630Z,0.10
2023-08-09T10:11:51.331Z,0.20
2023-08-09T10:14:21.362Z,0.20
2023-08-09T10:16:56.058Z,0.20
2023-08-09T10:19:31.825Z,0.20
2023-08-09T10:22:05.549Z,0.20
2023-08-09T10:24:34.111Z,0.10
2023-08-09T10:27:08.212Z,0.10
2023-08-09T10:29:36.563Z,0.20
2023-08-09T10:32:06.542Z,0.10
2023-08-09T10:34:36.811Z,0.10
2023-08-09T10:37:08.260Z,0.20
2023-08-09T10:39:37.214Z,0.10
2023-08-09T10:42:09.544Z,0.17
2023-08-09T10:44:41.147Z,0.10
2023-08-09T10:47:12.485Z,0.10
2023-08-09T10:50:08.737Z,0.10
2023-08-09T10:52:41.704Z,0.10
2023-08-09T10:55:32.303Z,0.10
2023-08-09T10:58:02.738Z,0.20
2023-08-09T11:00:42.881Z,0.20
2023-08-09T11:03:13.488Z,0.10
2023-08-09T11:05:42.046Z,0.10
2023-08-09T11:08:19.058Z,0.10
2023-08-09T11:10:49.572Z,0.20
2023-08-09T11:13:20.342Z,0.10
2023-08-09T11:15:51.582Z,0.10
2023-08-09T11:18:20.274Z,0.13
2023-08-09T11:20:48.966Z,0.10
2023-08-09T11:23:18.755Z,0.10
2023-08-09T11:25:47.015Z,0.10
2023-08-09T11:28:16.526Z,0.10
2023-08-09T11:30:47.066Z,0.10
2023-08-09T11:33:15.684Z,0.20
2023-08-09T11:35:47.064Z,0.20
2023-08-09T11:38:17.488Z,0.10
2023-08-09T11:40:48.690Z,0.10
2023-08-09T11:43:18.779Z,0.10
2023-08-09T11:45:55.705Z,0.20
2023-08-09T11:48:35.818Z,0.10
2023-08-09T11:51:06.740Z,0.10
2023-08-09T11:53:36.215Z,0.10
2023-08-09T11:56:08.132Z,0.10
2023-08-09T11:58:37.543Z,0.10
2023-08-09T12:01:21.830Z,0.10
2023-08-09T12:03:53.331Z,0.20
2023-08-09T12:06:36.300Z,0.10
2023-08-09T12:09:31.687Z,0.20
2023-08-09T12:12:10.119Z,0.10
2023-08-09T12:14:40.303Z,0.10
2023-08-09T12:17:10.131Z,0.10
2023-08-09T12:19:38.701Z,0.10
2023-08-09T12:22:07.230Z,0.10
2023-08-09T12:24:35.680Z,0.10
2023-08-09T12:27:05.269Z,0.10
2023-08-09T12:29:36.166Z,0.10
2023-08-09T12:32:05.278Z,0.10
2023-08-09T12:34:34.563Z,0.10
2023-08-09T12:37:03.000Z,0.10
2023-08-09T12:39:31.600Z,0.10
2023-08-09T12:42:01.100Z,0.10
2023-08-09T12:44:30.542Z,0.10
2023-08-09T12:47:00.436Z,0.10
2023-08-09T12:49:28.960Z,0.10
2023-08-09T12:51:57.562Z,0.10
2023-08-09T12:54:25.910Z,0.10
2023-08-09T12:56:56.279Z,0.10
2023-08-09T12:59:25.323Z,0.10
2023-08-09T13:01:54.258Z,0.20
2023-08-09T13:04:25.674Z,0.20
2023-08-09T13:06:55.754Z,0.10
2023-08-09T13:09:24.233Z,0.10
2023-08-09T13:12:05.843Z,0.10
2023-08-09T13:14:34.465Z,0.10
2023-08-09T13:17:03.004Z,0.17
2023-08-09T13:19:36.595Z,0.10
2023-08-09T13:22:08.933Z,0.10
2023-08-09T13:24:37.319Z,0.13
2023-08-09T13:27:06.534Z,0.10
2023-08-09T13:29:34.980Z,0.10
2023-08-09T13:32:03.492Z,0.10
2023-08-09T13:34:33.668Z,0.10
2023-08-09T13:37:02.495Z,0.10
2023-08-09T13:39:31.489Z,0.20
2023-08-09T13:42:00.133Z,0.10
2023-08-09T13:44:43.115Z,0.10
2023-08-09T13:47:12.342Z,0.20
2023-08-09T13:49:42.317Z,0.10
2023-08-09T13:52:11.086Z,0.10
2023-08-09T13:54:39.572Z,0.10
2023-08-09T13:57:08.068Z,0.20
2023-08-09T13:59:36.406Z,0.10
2023-08-09T14:02:05.254Z,0.10
2023-08-09T14:04:33.808Z,0.10
2023-08-09T14:07:05.537Z,0.10
2023-08-09T14:09:34.602Z,0.10
2023-08-09T14:12:03.380Z,0.20
2023-08-09T14:14:32.165Z,0.10
2023-08-09T14:17:01.178Z,0.20
2023-08-09T14:19:29.833Z,0.10
2023-08-09T14:21:58.142Z,0.20
2023-08-09T14:24:28.062Z,0.20
2023-08-09T14:26:57.006Z,0.10
2023-08-09T14:29:25.521Z,0.10
2023-08-09T14:31:54.141Z,0.20
2023-08-09T14:34:24.722Z,0.17
2023-08-09T14:36:53.340Z,0.10
2023-08-09T14:39:22.285Z,0.10
2023-08-09T14:41:53.086Z,0.20
2023-08-09T14:44:21.666Z,0.20
2023-08-09T14:46:50.254Z,0.20
2023-08-09T14:49:18.740Z,0.20
2023-08-09T14:51:47.226Z,0.10
2023-08-09T14:54:21.946Z,0.10
2023-08-09T14:57:03.102Z,0.10
2023-08-09T14:59:31.792Z,0.20
2023-08-09T15:02:00.682Z,0.20
2023-08-09T15:04:29.817Z,0.20
2023-08-09T15:06:58.397Z,0.13
2023-08-09T15:09:29.155Z,0.10
2023-08-09T15:11:57.852Z,0.10
2023-08-09T15:14:27.752Z,0.10
2023-08-09T15:16:58.933Z,0.10
2023-08-09T15:19:31.685Z,0.10
2023-08-09T15:22:00.194Z,0.10
2023-08-09T15:24:28.653Z,0.10
2023-08-09T15:26:57.053Z,0.20
2023-08-09T15:29:25.520Z,0.10
2023-08-09T15:31:55.421Z,0.20
2023-08-09T15:34:23.911Z,0.20
2023-08-09T15:36:52.412Z,0.10
2023-08-09T15:39:20.924Z,0.10
2023-08-09T15:41:49.916Z,0.13
2023-08-09T15:44:19.512Z,0.20
2023-08-09T15:46:48.084Z,0.20
2023-08-09T15:49:18.035Z,0.20
2023-08-09T15:51:46.670Z,0.10
2023-08-09T15:54:15.307Z,0.20
2023-08-09T15:56:43.825Z,0.10
2023-08-09T15:59:12.373Z,0.20
2023-08-09T16:01:40.941Z,0.20
2023-08-09T16:04:11.197Z,0.20
2023-08-09T16:06:41.260Z,0.20
2023-08-09T16:09:15.888Z,0.13
2023-08-09T16:11:45.679Z,0.20
2023-08-09T16:14:13.224Z,0.20
2023-08-09T16:16:42.030Z,0.20
2023-08-09T16:19:13.350Z,0.20
2023-08-09T16:21:45.275Z,0.10
2023-08-09T16:24:13.701Z,0.10
2023-08-09T16:26:42.417Z,0.20
2023-08-09T16:29:11.516Z,0.10
2023-08-09T16:31:39.981Z,0.10
2023-08-09T16:34:08.765Z,0.10
2023-08-09T16:36:37.822Z,0.17
2023-08-09T16:39:08.458Z,0.10
2023-08-09T16:41:37.004Z,0.10
2023-08-09T16:44:06.063Z,0.20
2023-08-09T16:46:34.589Z,0.20
2023-08-09T16:49:03.394Z,0.20
2023-08-09T16:51:31.736Z,0.10
2023-08-09T16:54:05.796Z,0.20
2023-08-09T16:56:36.435Z,0.20
2023-08-09T16:59:05.412Z,0.10
2023-08-09T17:01:33.860Z,0.20
2023-08-09T17:04:02.490Z,0.20
2023-08-09T17:06:31.190Z,0.20
2023-08-09T17:09:00.755Z,0.10
2023-08-09T17:11:29.315Z,0.10
2023-08-09T17:13:59.035Z,0.10
2023-08-09T17:16:28.192Z,0.20
2023-08-09T17:18:56.666Z,0.10
2023-08-09T17:21:25.031Z,0.20
2023-08-09T17:23:53.521Z,0.10
2023-08-09T17:26:22.069Z,0.20
2023-08-09T17:28:50.579Z,0.20
2023-08-09T17:31:21.520Z,0.20
2023-08-09T17:33:51.539Z,0.10
2023-08-09T17:36:21.062Z,0.17
2023-08-09T17:38:50.653Z,0.20
2023-08-09T17:41:20.113Z,0.20
2023-08-09T17:43:52.539Z,0.10
2023-08-09T17:46:23.461Z,0.13
2023-08-09T17:48:53.278Z,0.10
2023-08-09T17:51:23.880Z,0.10
2023-08-09T17:53:52.411Z,0.10
2023-08-09T17:56:21.244Z,0.20
2023-08-09T17:58:52.072Z,0.20
2023-08-09T18:01:23.652Z,0.20
2023-08-09T18:03:52.384Z,0.20
2023-08-09T18:06:20.976Z,0.20
2023-08-09T18:08:49.816Z,0.20
2023-08-09T18:11:19.284Z,0.20
2023-08-09T18:13:48.073Z,0.10
2023-08-09T18:16:17.277Z,0.20
2023-08-09T18:18:47.122Z,0.20
2023-08-09T18:21:15.878Z,0.20
2023-08-09T18:23:44.342Z,0.20
2023-08-09T18:26:12.784Z,0.10
2023-08-09T18:28:41.277Z,0.10
2023-08-09T18:31:10.722Z,0.20
2023-08-09T18:33:39.138Z,0.20
2023-08-09T18:36:09.155Z,0.20
2023-08-09T18:38:37.486Z,0.20
2023-08-09T18:41:07.268Z,0.20
2023-08-09T18:43:35.874Z,0.20
2023-08-09T18:46:07.147Z,0.20
2023-08-09T18:48:35.879Z,0.20
2023-08-09T18:51:05.619Z,0.13
2023-08-09T18:53:35.579Z,0.20
2023-08-09T18:56:04.059Z,0.20
2023-08-09T18:58:32.589Z,0.20
2023-08-09T19:01:02.548Z,0.20
2023-08-09T19:03:31.196Z,0.20
2023-08-09T19:05:59.793Z,0.20
2023-08-09T19:08:28.325Z,0.20
2023-08-09T19:10:59.232Z,0.20
2023-08-09T19:13:27.732Z,0.20
2023-08-09T19:15:56.376Z,0.13
2023-08-09T19:18:25.142Z,0.20
2023-08-09T19:20:53.554Z,0.20
2023-08-09T19:23:22.013Z,0.10
2023-08-09T19:25:50.515Z,0.17
2023-08-09T19:28:20.772Z,0.17
2023-08-09T19:30:50.124Z,0.20
2023-08-09T19:33:18.600Z,0.20
2023-08-09T19:35:47.376Z,0.20
2023-08-09T19:38:15.754Z,0.10
2023-08-09T19:40:44.235Z,0.20
2023-08-09T19:43:12.589Z,0.20
2023-08-09T19:45:42.294Z,0.13
2023-08-09T19:48:10.802Z,0.20
2023-08-09T19:50:39.242Z,0.20
2023-08-09T19:53:07.599Z,0.17
2023-08-09T19:55:36.241Z,0.20
2023-08-09T19:58:05.304Z,0.13
2023-08-09T20:00:34.023Z,0.20
2023-08-09T20:03:03.780Z,0.10
2023-08-09T20:05:35.222Z,0.20
2023-08-09T20:08:05.470Z,0.20
2023-08-09T20:10:36.727Z,0.20
2023-08-09T20:13:06.150Z,0.20
2023-08-09T20:15:35.672Z,0.20
2023-08-09T20:18:07.336Z,0.20
2023-08-09T20:20:37.495Z,0.20
2023-08-09T20:23:07.312Z,0.20
2023-08-09T20:25:36.596Z,0.10
2023-08-09T20:28:07.308Z,0.13
2023-08-09T20:30:35.997Z,0.20
2023-08-09T20:33:06.665Z,0.20
2023-08-09T20:35:35.761Z,0.27
2023-08-09T20:38:04.807Z,0.20
2023-08-09T20:40:33.574Z,0.20
2023-08-09T20:43:02.315Z,0.20
2023-08-09T20:45:34.173Z,0.20
2023-08-09T20:48:03.731Z,0.20
2023-08-09T20:50:33.884Z,0.20
2023-08-09T20:53:03.885Z,0.20
2023-08-09T20:55:32.976Z,0.20
2023-08-09T20:58:01.579Z,0.20
2023-08-09T21:00:30.287Z,0.20
2023-08-09T21:02:58.895Z,0.20
2023-08-09T21:05:27.452Z,0.20
2023-08-09T21:07:57.400Z,0.20
2023-08-09T21:10:26.173Z,0.27
2023-08-09T21:12:55.728Z,0.20
2023-08-09T21:15:24.917Z,0.20
2023-08-09T21:17:53.744Z,0.20
2023-08-09T21:20:22.321Z,0.10
2023-08-09T21:22:57.314Z,0.20
2023-08-09T21:27:59.264Z,0.20
2023-08-09T21:30:27.777Z,0.20
2023-08-09T21:32:56.314Z,0.20
2023-08-09T21:35:27.633Z,0.20
2023-08-09T21:37:56.080Z,0.20
2023-08-09T21:40:24.426Z,0.20
2023-08-09T21:42:54.345Z,0.27
2023-08-09T21:45:23.016Z,0.20
2023-08-09T21:47:51.571Z,0.20
2023-08-09T21:50:20.269Z,0.20
2023-08-09T21:52:48.751Z,0.10
2023-08-09T21:55:17.307Z,0.20
2023-08-09T21:57:45.764Z,0.20
2023-08-09T22:00:17.336Z,0.20
2023-08-09T22:02:45.967Z,0.20
2023-08-09T22:05:14.553Z,0.20
2023-08-09T22:07:42.950Z,0.20
2023-08-09T22:10:11.805Z,0.20
2023-08-09T22:12:40.512Z,0.20
2023-08-09T22:15:10.345Z,0.13
2023-08-09T22:17:40.235Z,0.20
2023-08-09T22:20:10.012Z,0.20
2023-08-09T22:22:38.554Z,0.20
2023-08-09T22:25:09.403Z,0.30
2023-08-09T22:27:38.003Z,0.20
2023-08-09T22:30:07.768Z,0.20
2023-08-09T22:32:36.291Z,0.30
2023-08-09T22:35:07.681Z,0.20
2023-08-09T22:37:36.510Z,0.20
2023-08-09T22:40:06.182Z,0.20
2023-08-09T22:42:34.782Z,0.20
2023-08-09T22:45:03.293Z,0.20
2023-08-09T22:47:31.768Z,0.30
2023-08-09T22:50:00.194Z,0.20
2023-08-09T22:52:30.115Z,0.27
2023-08-09T22:54:58.685Z,0.20
2023-08-09T22:57:27.055Z,0.20
2023-08-09T22:59:55.347Z,0.23
2023-08-09T23:02:23.654Z,0.30
2023-08-09T23:04:52.382Z,0.30
2023-08-09T23:07:21.024Z,0.30
2023-08-09T23:09:51.273Z,0.20
2023-08-09T23:12:21.028Z,0.20
2023-08-09T23:14:49.651Z,0.20
2023-08-09T23:17:20.998Z,0.20
2023-08-09T23:19:53.601Z,0.20
2023-08-09T23:22:22.197Z,0.30
2023-08-09T23:24:52.191Z,0.20
2023-08-09T23:27:26.902Z,0.30
2023-08-09T23:30:07.012Z,0.27
2023-08-09T23:32:36.081Z,0.27
2023-08-09T23:35:05.140Z,0.20
2023-08-09T23:37:33.906Z,0.20
2023-08-09T23:40:08.063Z,0.20
2023-08-09T23:42:36.644Z,0.30
2023-08-09T23:45:09.353Z,0.20
2023-08-09T23:47:38.263Z,0.20
2023-08-09T23:50:07.445Z,0.30
2023-08-09T23:52:36.270Z,0.30
2023-08-09T23:55:07.307Z,0.30
2023-08-09T23:57:35.709Z,0.40
